createdAt,value
2023-05-17T00:01:08.817Z,12.73
2023-05-17T00:04:11.191Z,16.40
2023-05-17T00:07:13.303Z,15.13
2023-05-17T00:10:15.330Z,15.13
2023-05-17T00:13:17.380Z,13.75
2023-05-17T00:16:19.417Z,9.50
2023-05-17T00:19:21.580Z,10.80
2023-05-17T00:22:23.772Z,15.10
2023-05-17T00:25:25.923Z,14.02
2023-05-17T00:28:28.109Z,12.18
2023-05-17T00:31:32.543Z,14.95
2023-05-17T00:34:34.565Z,12.25
2023-05-17T00:37:36.563Z,14.57
2023-05-17T00:40:38.834Z,12.52
2023-05-17T00:43:40.953Z,12.63
2023-05-17T00:46:43.251Z,11.23
2023-05-17T00:49:46.081Z,11.60
2023-05-17T00:52:48.113Z,12.37
2023-05-17T00:55:50.596Z,15.68
2023-05-17T00:58:53.644Z,11.32
2023-05-17T01:01:56.507Z,12.83
2023-05-17T01:04:58.768Z,9.90
2023-05-17T01:08:00.905Z,13.00
2023-05-17T01:11:21.930Z,9.75
2023-05-17T01:14:30.436Z,10.07
2023-05-17T01:17:56.690Z,9.77
2023-05-17T01:21:00.412Z,8.57
2023-05-17T01:24:18.165Z,12.20
2023-05-17T01:27:22.026Z,10.88
2023-05-17T01:30:26.276Z,11.82
2023-05-17T01:33:28.894Z,12.90
2023-05-17T01:36:31.105Z,16.63
2023-05-17T01:39:33.263Z,13.20
2023-05-17T01:42:40.178Z,16.60
2023-05-17T01:45:53.145Z,14.07
2023-05-17T01:49:07.833Z,12.30
2023-05-17T01:52:35.893Z,11.18
2023-05-17T01:55:43.158Z,13.30
2023-05-17T01:58:48.993Z,11.55
2023-05-17T02:02:07.353Z,12.05
2023-05-17T02:05:11.060Z,10.97
2023-05-17T02:08:15.342Z,12.93
2023-05-17T02:11:17.480Z,9.18
2023-05-17T02:14:19.447Z,9.63
2023-05-17T02:17:21.470Z,10.25
2023-05-17T02:20:24.237Z,9.33
2023-05-17T02:23:27.393Z,9.00
2023-05-17T02:26:29.357Z,11.70
2023-05-17T02:29:32.455Z,9.43
2023-05-17T02:32:35.083Z,8.23
2023-05-17T02:35:37.178Z,8.53
2023-05-17T02:38:39.475Z,7.35
2023-05-17T02:41:41.585Z,9.93
2023-05-17T02:44:43.736Z,10.48
2023-05-17T02:47:45.958Z,13.13
2023-05-17T02:50:49.253Z,9.90
2023-05-17T02:53:51.696Z,9.63
2023-05-17T02:56:54.196Z,9.73
2023-05-17T02:59:56.208Z,14.13
2023-05-17T03:02:58.383Z,10.75
2023-05-17T03:06:01.836Z,11.03
2023-05-17T03:09:04.510Z,9.73
2023-05-17T03:12:07.294Z,12.43
2023-05-17T03:15:10.618Z,9.00
2023-05-17T03:18:12.724Z,12.57
2023-05-17T03:21:15.498Z,9.97
2023-05-17T03:24:17.961Z,8.65
2023-05-17T03:27:20.116Z,9.30
2023-05-17T03:30:22.216Z,9.63
2023-05-17T03:33:24.520Z,10.68
2023-05-17T03:36:26.602Z,11.00
2023-05-17T03:39:28.956Z,9.57
2023-05-17T03:42:31.076Z,8.48
2023-05-17T03:45:33.210Z,13.38
2023-05-17T03:48:36.104Z,10.27
2023-05-17T03:51:39.534Z,9.90
2023-05-17T03:54:41.548Z,9.65
2023-05-17T03:57:43.586Z,8.93
2023-05-17T04:00:46.672Z,8.98
2023-05-17T04:03:52.621Z,9.18
2023-05-17T04:06:56.569Z,9.33
2023-05-17T04:10:03.016Z,13.38
2023-05-17T04:13:05.203Z,9.73
2023-05-17T04:16:10.857Z,9.52
2023-05-17T04:19:15.984Z,10.90
2023-05-17T04:22:18.194Z,10.13
2023-05-17T04:25:20.477Z,12.38
2023-05-17T04:28:22.532Z,13.57
2023-05-17T04:31:24.501Z,13.15
2023-05-17T04:34:27.681Z,10.02
2023-05-17T04:37:31.345Z,10.07
2023-05-17T04:40:38.053Z,12.05
2023-05-17T04:43:40.710Z,11.65
2023-05-17T04:46:47.976Z,10.57
2023-05-17T04:49:51.508Z,11.73
2023-05-17T04:52:53.536Z,11.37
2023-05-17T04:55:55.712Z,11.93
2023-05-17T04:58:57.789Z,13.18
2023-05-17T05:01:59.846Z,11.00
2023-05-17T05:05:04.990Z,12.15
2023-05-17T05:08:09.247Z,13.77
2023-05-17T05:11:11.488Z,11.35
2023-05-17T05:14:13.504Z,11.82
2023-05-17T05:17:17.005Z,12.98
2023-05-17T05:20:21.181Z,10.52
2023-05-17T05:23:23.401Z,10.17
2023-05-17T05:26:27.326Z,13.88
2023-05-17T05:29:32.027Z,13.15
2023-05-17T05:32:34.839Z,14.68
2023-05-17T05:35:37.109Z,12.52
2023-05-17T05:38:39.244Z,14.37
2023-05-17T05:41:41.808Z,13.77
2023-05-17T05:44:44.101Z,11.65
2023-05-17T05:47:46.250Z,12.30
2023-05-17T05:50:48.341Z,12.95
2023-05-17T05:53:50.499Z,13.27
2023-05-17T05:56:52.620Z,12.93
2023-05-17T05:59:55.682Z,14.25
2023-05-17T06:02:58.029Z,17.65
2023-05-17T06:06:00.130Z,14.77
2023-05-17T06:09:02.718Z,13.20
2023-05-17T06:12:04.980Z,12.35
2023-05-17T06:15:07.545Z,11.30
2023-05-17T06:18:09.544Z,12.13
2023-05-17T06:21:15.298Z,12.50
2023-05-17T06:24:17.305Z,13.93
2023-05-17T06:27:19.421Z,15.40
2023-05-17T06:30:21.639Z,12.10
2023-05-17T06:33:23.723Z,16.63
2023-05-17T06:36:25.926Z,14.63
2023-05-17T06:39:27.901Z,14.43
2023-05-17T06:42:29.912Z,14.43
2023-05-17T06:45:32.027Z,16.20
2023-05-17T06:48:34.158Z,15.73
2023-05-17T06:51:36.209Z,15.65
2023-05-17T06:54:38.198Z,15.77
2023-05-17T06:57:40.128Z,11.63
2023-05-17T07:00:42.098Z,15.35
2023-05-17T07:03:44.135Z,18.67
2023-05-17T07:06:46.785Z,16.25
2023-05-17T07:09:48.847Z,14.37
2023-05-17T07:12:50.865Z,18.07
2023-05-17T07:15:52.873Z,17.67
2023-05-17T07:18:55.132Z,21.13
2023-05-17T07:21:57.332Z,13.70
2023-05-17T07:25:02.181Z,14.57
2023-05-17T07:28:05.370Z,13.98
2023-05-17T07:31:07.456Z,17.90
2023-05-17T07:34:09.510Z,16.73
2023-05-17T07:37:11.593Z,21.67
2023-05-17T07:40:13.732Z,17.23
2023-05-17T07:43:16.090Z,13.82
2023-05-17T07:46:18.414Z,14.07
2023-05-17T07:49:20.544Z,16.52
2023-05-17T07:52:22.634Z,20.80
2023-05-17T07:55:24.614Z,16.37
2023-05-17T07:58:29.040Z,15.10
2023-05-17T08:01:31.284Z,18.17
2023-05-17T08:04:33.342Z,16.50
2023-05-17T08:07:35.534Z,14.02
2023-05-17T08:10:37.965Z,13.93
2023-05-17T08:13:40.225Z,15.90
2023-05-17T08:16:43.245Z,12.35
2023-05-17T08:19:45.566Z,15.52
2023-05-17T08:22:47.766Z,15.60
2023-05-17T08:25:50.097Z,15.30
2023-05-17T08:28:52.064Z,17.40
2023-05-17T08:31:55.232Z,18.92
2023-05-17T08:34:57.953Z,15.43
2023-05-17T08:37:59.872Z,15.38
2023-05-17T08:41:03.144Z,19.30
2023-05-17T08:44:06.492Z,17.45
2023-05-17T08:47:12.065Z,20.42
2023-05-17T08:50:14.457Z,19.48
2023-05-17T08:53:17.742Z,17.13
2023-05-17T08:56:21.597Z,21.53
2023-05-17T08:59:23.874Z,20.00
2023-05-17T09:02:28.493Z,19.80
2023-05-17T09:05:30.700Z,20.17
2023-05-17T09:08:33.016Z,17.50
2023-05-17T09:11:35.180Z,16.83
2023-05-17T09:14:37.238Z,17.33
2023-05-17T09:17:40.800Z,16.75
2023-05-17T09:20:49.756Z,16.75
2023-05-17T09:24:04.803Z,17.90
2023-05-17T09:27:09.582Z,14.90
2023-05-17T09:30:12.244Z,18.13
2023-05-17T09:33:17.630Z,13.93
2023-05-17T09:36:22.665Z,15.88
2023-05-17T09:39:25.465Z,15.27
2023-05-17T09:42:27.553Z,16.23
2023-05-17T09:45:32.368Z,14.83
2023-05-17T09:48:38.525Z,15.88
2023-05-17T09:51:45.524Z,18.35
2023-05-17T09:54:53.548Z,15.63
2023-05-17T09:58:02.908Z,20.13
2023-05-17T10:01:06.839Z,20.57
2023-05-17T10:04:13.419Z,17.30
2023-05-17T10:07:19.746Z,15.88
2023-05-17T10:10:22.032Z,19.23
2023-05-17T10:13:27.565Z,17.10
2023-05-17T10:16:30.781Z,17.57
2023-05-17T10:19:33.327Z,20.17
2023-05-17T10:22:36.352Z,17.55
2023-05-17T10:25:38.934Z,17.00
2023-05-17T10:28:41.130Z,18.60
2023-05-17T10:31:44.496Z,17.83
2023-05-17T10:35:01.568Z,17.33
2023-05-17T10:38:08.596Z,16.08
2023-05-17T10:41:12.896Z,18.83
2023-05-17T10:44:16.692Z,18.80
2023-05-17T10:47:19.007Z,18.77
2023-05-17T10:50:25.931Z,21.48
2023-05-17T10:53:28.132Z,19.95
2023-05-17T10:56:33.864Z,16.33
2023-05-17T10:59:36.040Z,19.47
2023-05-17T11:02:43.129Z,16.20
2023-05-17T11:06:13.218Z,16.55
2023-05-17T11:09:24.451Z,14.15
2023-05-17T11:12:33.806Z,15.77
2023-05-17T11:15:36.846Z,17.57
2023-05-17T11:18:52.775Z,16.80
2023-05-17T11:21:55.768Z,16.85
2023-05-17T11:24:58.082Z,14.38
2023-05-17T11:28:00.356Z,15.68
2023-05-17T11:31:03.607Z,17.47
2023-05-17T11:34:06.216Z,16.40
2023-05-17T11:37:12.022Z,17.52
2023-05-17T11:40:15.082Z,16.02
2023-05-17T11:43:19.185Z,14.82
2023-05-17T11:46:24.194Z,18.10
2023-05-17T11:49:35.015Z,14.27
2023-05-17T11:52:40.989Z,15.35
2023-05-17T11:55:51.172Z,14.98
2023-05-17T11:58:54.320Z,13.93
2023-05-17T12:01:56.588Z,14.10
2023-05-17T12:04:59.038Z,16.40
2023-05-17T12:08:01.108Z,12.52
2023-05-17T12:11:04.177Z,13.05
2023-05-17T12:14:06.706Z,14.68
2023-05-17T12:17:10.034Z,12.70
2023-05-17T12:20:12.431Z,12.73
2023-05-17T12:23:14.572Z,12.88
2023-05-17T12:26:18.116Z,12.07
2023-05-17T12:29:23.073Z,10.95
2023-05-17T12:32:25.831Z,11.37
2023-05-17T12:35:27.934Z,14.20
2023-05-17T12:38:33.994Z,13.27
2023-05-17T12:41:37.252Z,12.45
2023-05-17T12:44:39.400Z,13.55
2023-05-17T12:47:41.500Z,11.50
2023-05-17T12:50:49.049Z,11.57
2023-05-17T12:53:56.045Z,14.90
2023-05-17T12:56:58.209Z,11.38
2023-05-17T13:00:07.713Z,14.55
2023-05-17T13:03:12.893Z,15.53
2023-05-17T13:06:15.002Z,11.20
2023-05-17T13:09:18.796Z,12.45
2023-05-17T13:12:23.566Z,11.52
2023-05-17T13:15:33.151Z,11.77
2023-05-17T13:18:52.018Z,12.27
2023-05-17T13:21:54.187Z,13.03
2023-05-17T13:24:56.269Z,15.35
2023-05-17T13:27:58.226Z,14.10
2023-05-17T13:31:00.371Z,16.40
2023-05-17T13:34:02.553Z,13.13
2023-05-17T13:37:07.822Z,14.00
2023-05-17T13:40:11.964Z,10.65
2023-05-17T13:43:15.061Z,11.40
2023-05-17T13:46:17.122Z,13.43
2023-05-17T13:49:19.325Z,8.30
2023-05-17T13:52:23.169Z,10.87
2023-05-17T13:55:25.572Z,10.15
2023-05-17T13:58:27.656Z,11.05
2023-05-17T14:01:30.260Z,10.63
2023-05-17T14:04:32.518Z,10.17
2023-05-17T14:07:34.592Z,10.33
2023-05-17T14:10:36.739Z,9.73
2023-05-17T14:13:38.766Z,12.02
2023-05-17T14:16:41.158Z,8.98
2023-05-17T14:19:43.149Z,11.37
2023-05-17T14:22:45.958Z,11.67
2023-05-17T14:25:49.312Z,9.95
2023-05-17T14:28:51.932Z,8.85
2023-05-17T14:31:54.109Z,11.35
2023-05-17T14:34:56.113Z,10.90
2023-05-17T14:37:58.172Z,12.70
2023-05-17T14:41:03.377Z,9.30
2023-05-17T14:44:05.748Z,12.38
2023-05-17T14:47:08.364Z,11.15
2023-05-17T14:50:11.100Z,12.03
2023-05-17T14:53:13.189Z,10.13
2023-05-17T14:56:15.375Z,9.82
2023-05-17T14:59:17.937Z,12.38
2023-05-17T15:02:19.945Z,11.57
2023-05-17T15:05:22.051Z,10.97
2023-05-17T15:08:24.668Z,7.73
2023-05-17T15:11:26.692Z,10.70
2023-05-17T15:14:29.223Z,11.57
2023-05-17T15:17:31.179Z,9.88
2023-05-17T15:20:33.398Z,10.83
2023-05-17T15:23:35.452Z,7.30
2023-05-17T15:26:37.473Z,9.18
2023-05-17T15:29:40.934Z,8.68
2023-05-17T15:32:44.180Z,8.98
2023-05-17T15:35:46.241Z,11.00
2023-05-17T15:38:48.192Z,6.80
2023-05-17T15:41:50.439Z,7.55
2023-05-17T15:44:52.324Z,9.43
2023-05-17T15:47:56.625Z,6.22
2023-05-17T15:50:58.889Z,7.33
2023-05-17T15:54:00.945Z,7.07
2023-05-17T15:57:03.073Z,11.32
2023-05-17T16:00:05.799Z,7.15
2023-05-17T16:03:07.823Z,7.95
2023-05-17T16:06:10.161Z,7.30
2023-05-17T16:09:14.373Z,7.87
2023-05-17T16:12:17.124Z,7.25
2023-05-17T16:15:19.318Z,7.38
2023-05-17T16:18:21.415Z,7.38
2023-05-17T16:21:23.482Z,6.33
2023-05-17T16:24:25.844Z,6.10
2023-05-17T16:27:27.829Z,7.22
2023-05-17T16:30:29.968Z,6.18
2023-05-17T16:33:32.091Z,6.03
2023-05-17T16:36:34.164Z,6.87
2023-05-17T16:39:36.454Z,5.97
2023-05-17T16:42:38.452Z,6.30
2023-05-17T16:45:40.416Z,4.80
2023-05-17T16:48:42.608Z,6.20
2023-05-17T16:51:45.488Z,6.30
2023-05-17T16:54:47.673Z,5.90
2023-05-17T16:57:49.820Z,4.78
2023-05-17T17:00:51.890Z,5.60
2023-05-17T17:03:56.794Z,5.25
2023-05-17T17:06:58.929Z,4.50
2023-05-17T17:10:01.316Z,6.57
2023-05-17T17:13:03.598Z,9.75
2023-05-17T17:16:06.100Z,6.15
2023-05-17T17:19:08.310Z,4.90
2023-05-17T17:22:11.877Z,6.77
2023-05-17T17:25:14.181Z,6.35
2023-05-17T17:28:16.511Z,6.07
2023-05-17T17:31:18.739Z,5.70
2023-05-17T17:34:20.907Z,5.20
2023-05-17T17:37:23.142Z,5.07
2023-05-17T17:40:25.566Z,4.45
2023-05-17T17:43:28.057Z,4.75
2023-05-17T17:46:30.715Z,3.80
2023-05-17T17:49:33.131Z,4.90
2023-05-17T17:52:37.271Z,5.40
2023-05-17T17:55:40.990Z,3.97
2023-05-17T17:58:43.515Z,11.20
2023-05-17T18:01:45.923Z,4.10
2023-05-17T18:04:48.328Z,4.00
2023-05-17T18:07:50.844Z,3.33
2023-05-17T18:10:53.302Z,2.72
2023-05-17T18:13:55.727Z,4.22
2023-05-17T18:16:58.424Z,4.35
2023-05-17T18:20:02.098Z,4.40
2023-05-17T18:23:04.772Z,3.17
2023-05-17T18:26:07.355Z,3.95
2023-05-17T18:29:09.806Z,4.13
2023-05-17T18:32:12.576Z,5.43
2023-05-17T18:35:15.164Z,4.78
2023-05-17T18:38:17.532Z,6.73
2023-05-17T18:41:19.994Z,6.25
2023-05-17T18:44:22.540Z,4.97
2023-05-17T18:47:27.629Z,4.03
2023-05-17T18:50:31.481Z,12.25
2023-05-17T18:53:36.022Z,11.70
2023-05-17T18:56:38.538Z,5.10
2023-05-17T18:59:41.781Z,5.53
2023-05-17T19:02:44.204Z,7.10
2023-05-17T19:05:46.693Z,5.88
2023-05-17T19:08:49.994Z,6.60
2023-05-17T19:11:52.001Z,6.00
2023-05-17T19:14:54.066Z,5.68
2023-05-17T19:17:56.588Z,4.40
2023-05-17T19:20:59.118Z,7.63
2023-05-17T19:24:01.877Z,4.73
2023-05-17T19:27:06.975Z,5.70
2023-05-17T19:30:09.985Z,7.57
2023-05-17T19:33:12.569Z,5.95
2023-05-17T19:36:15.037Z,4.82
2023-05-17T19:39:20.478Z,6.27
2023-05-17T19:42:24.186Z,5.28
2023-05-17T19:45:26.407Z,5.32
2023-05-17T19:48:28.977Z,8.65
2023-05-17T19:51:32.687Z,7.40
2023-05-17T19:54:41.206Z,5.40
2023-05-17T19:57:44.853Z,4.03
2023-05-17T20:00:47.330Z,5.72
2023-05-17T20:03:49.953Z,4.75
2023-05-17T20:06:52.512Z,4.88
2023-05-17T20:09:54.856Z,5.77
2023-05-17T20:12:57.988Z,4.85
2023-05-17T20:16:01.119Z,7.40
2023-05-17T20:19:03.629Z,5.53
2023-05-17T20:22:06.289Z,6.90
2023-05-17T20:25:08.865Z,5.80
2023-05-17T20:28:10.930Z,5.95
2023-05-17T20:31:13.571Z,8.90
2023-05-17T20:34:15.834Z,5.20
2023-05-17T20:37:18.111Z,5.75
2023-05-17T20:40:20.209Z,4.93
2023-05-17T20:43:28.642Z,5.80
2023-05-17T20:46:30.968Z,10.30
2023-05-17T20:49:33.007Z,5.10
2023-05-17T20:52:39.537Z,6.40
2023-05-17T20:55:44.317Z,5.00
2023-05-17T20:58:47.550Z,5.80
2023-05-17T21:01:49.634Z,5.78
2023-05-17T21:04:54.766Z,5.72
2023-05-17T21:07:59.718Z,6.80
2023-05-17T21:11:01.770Z,5.40
2023-05-17T21:14:03.820Z,6.93
2023-05-17T21:17:05.821Z,5.05
2023-05-17T21:20:08.599Z,5.65
2023-05-17T21:23:10.898Z,6.72
2023-05-17T21:26:13.472Z,5.80
2023-05-17T21:29:15.452Z,4.60
2023-05-17T21:32:17.457Z,4.80
2023-05-17T21:35:19.455Z,4.38
2023-05-17T21:38:21.503Z,6.20
2023-05-17T21:41:23.468Z,5.03
2023-05-17T21:44:25.604Z,5.22
2023-05-17T21:47:27.666Z,5.13
2023-05-17T21:50:30.954Z,6.00
2023-05-17T21:53:33.130Z,5.00
2023-05-17T21:56:35.170Z,5.27
2023-05-17T21:59:37.145Z,11.35
2023-05-17T22:02:40.912Z,4.50
2023-05-17T22:05:42.980Z,5.90
2023-05-17T22:08:45.240Z,5.05
2023-05-17T22:11:47.404Z,6.67
2023-05-17T22:14:50.426Z,6.47
2023-05-17T22:17:53.181Z,5.90
2023-05-17T22:20:55.369Z,8.55
2023-05-17T22:23:57.511Z,5.25
2023-05-17T22:26:59.451Z,4.90
2023-05-17T22:30:01.491Z,4.75
2023-05-17T22:33:03.653Z,5.13
2023-05-17T22:36:05.942Z,5.13
2023-05-17T22:39:09.780Z,6.38
2023-05-17T22:42:11.848Z,5.63
2023-05-17T22:45:14.590Z,5.88
2023-05-17T22:48:16.690Z,4.45
2023-05-17T22:51:19.806Z,3.95
2023-05-17T22:54:21.972Z,4.75
2023-05-17T22:57:24.009Z,3.37
2023-05-17T23:00:26.372Z,5.57
2023-05-17T23:03:28.483Z,5.55
2023-05-17T23:06:34.136Z,5.03
2023-05-17T23:09:38.861Z,3.53
2023-05-17T23:12:41.019Z,3.80
2023-05-17T23:15:46.910Z,6.13
2023-05-17T23:18:49.299Z,4.35
2023-05-17T23:21:51.310Z,5.75
2023-05-17T23:24:54.100Z,6.63
2023-05-17T23:27:58.161Z,4.37
2023-05-17T23:31:02.120Z,4.57
2023-05-17T23:34:04.351Z,4.82
2023-05-17T23:37:06.636Z,6.60
2023-05-17T23:40:11.893Z,4.97
2023-05-17T23:43:14.591Z,4.50
2023-05-17T23:46:19.630Z,3.60
2023-05-17T23:49:23.540Z,3.92
2023-05-17T23:52:29.837Z,2.20
2023-05-17T23:55:32.242Z,2.05
2023-05-17T23:58:34.290Z,2.30
